Time;durP1;ratioP1;P1;durP2;ratioP2;P2;SDS_P1;SDS_P2;PMS_P1;PMS_P2;Temp;Humidity;BMP_temperature;BMP_pressure;BME280_temperature;BME280_humidity;BME280_pressure;Samples;Min_cycle;Max_cycle;Signal;HPM_P1;HPM_P2
2020/12/13 00:00:13;;;;;;;11.65;6.63;;;4.50;99.90;;;;;;8295386;28;20646;-66
2020/12/13 00:04:14;;;;;;;13.00;7.70;;;4.50;99.90;;;;;;8295541;28;20025;-66
2020/12/13 00:08:14;;;;;;;12.32;7.07;;;4.50;99.90;;;;;;8295759;28;20022;-65
2020/12/13 00:12:15;;;;;;;12.40;6.95;;;4.50;99.90;;;;;;8295051;28;20065;-66
2020/12/13 00:16:16;;;;;;;8.73;5.57;;;4.50;99.90;;;;;;8294420;28;20033;-66
2020/12/13 00:20:16;;;;;;;11.40;6.85;;;4.50;99.90;;;;;;8293366;28;20044;-66
2020/12/13 00:24:20;;;;;;;9.15;4.80;;;4.60;99.90;;;;;;8294914;28;20022;-66
2020/12/13 00:28:21;;;;;;;7.40;5.65;;;4.60;99.90;;;;;;8294169;28;20018;-66
2020/12/13 00:32:27;;;;;;;11.77;6.05;;;4.50;99.90;;;;;;8292805;28;20060;-66
2020/12/13 00:36:28;;;;;;;8.25;4.88;;;4.50;99.90;;;;;;8293706;28;20565;-66
2020/12/13 00:40:28;;;;;;;8.82;5.55;;;4.60;99.90;;;;;;8294510;28;20038;-66
2020/12/13 00:44:29;;;;;;;5.63;3.30;;;4.50;99.90;;;;;;8294795;28;20484;-66
2020/12/13 00:48:29;;;;;;;8.77;5.20;;;4.50;99.90;;;;;;8293108;28;20029;-66
2020/12/13 00:52:30;;;;;;;11.40;6.07;;;4.60;99.90;;;;;;8292502;28;20030;-66
2020/12/13 00:56:30;;;;;;;9.93;6.28;;;4.50;99.90;;;;;;8292818;28;20480;-66
2020/12/13 01:00:32;;;;;;;9.60;6.55;;;4.50;99.90;;;;;;8293994;28;20137;-65
2020/12/13 01:04:33;;;;;;;9.90;6.65;;;4.50;99.90;;;;;;8294440;28;20050;-65
2020/12/13 01:08:34;;;;;;;9.75;6.20;;;4.70;99.90;;;;;;8294137;28;20096;-65
2020/12/13 01:12:35;;;;;;;14.70;7.38;;;4.60;99.90;;;;;;8293796;28;20114;-66
2020/12/13 01:16:35;;;;;;;12.27;8.10;;;4.60;99.90;;;;;;8294033;28;20030;-66
2020/12/13 01:20:36;;;;;;;12.68;7.60;;;4.60;99.90;;;;;;8293737;28;20026;-66
2020/12/13 01:24:36;;;;;;;13.98;8.18;;;4.50;99.90;;;;;;8293218;28;20021;-66
2020/12/13 01:28:37;;;;;;;18.88;9.98;;;4.60;99.90;;;;;;8292667;28;20061;-66
2020/12/13 01:32:39;;;;;;;15.82;9.55;;;4.50;99.90;;;;;;8292391;28;20438;-66
2020/12/13 01:36:40;;;;;;;14.13;9.00;;;4.50;99.90;;;;;;8293700;28;20026;-66
2020/12/13 01:40:40;;;;;;;15.07;9.40;;;4.60;99.90;;;;;;8293199;28;20036;-66
2020/12/13 01:44:41;;;;;;;13.95;9.18;;;4.70;99.90;;;;;;8293640;28;20087;-66
2020/12/13 01:48:41;;;;;;;14.43;9.15;;;4.60;99.90;;;;;;8293488;28;20524;-65
2020/12/13 01:52:49;;;;;;;13.10;8.20;;;4.60;99.90;;;;;;8293008;28;20034;-67
2020/12/13 01:56:53;;;;;;;13.30;8.80;;;4.60;99.90;;;;;;8293490;28;20057;-65
2020/12/13 02:00:56;;;;;;;15.10;8.65;;;4.60;99.90;;;;;;8293258;28;20080;-65
2020/12/13 02:04:59;;;;;;;8.35;5.18;;;4.50;99.90;;;;;;8292732;28;20033;-65
2020/12/13 02:08:59;;;;;;;15.88;9.15;;;4.60;99.90;;;;;;8294993;28;20099;-64
2020/12/13 02:13:00;;;;;;;17.40;11.20;;;4.70;99.90;;;;;;8298810;28;20042;-65
2020/12/13 02:17:01;;;;;;;17.77;10.55;;;4.60;99.90;;;;;;8298043;28;20030;-64
2020/12/13 02:21:03;;;;;;;20.65;11.88;;;4.60;99.90;;;;;;8298755;28;20050;-65
2020/12/13 02:25:23;;;;;;;18.20;10.23;;;4.70;99.90;;;;;;8296986;28;20168;-64
2020/12/13 02:29:23;;;;;;;20.13;11.55;;;4.70;99.90;;;;;;8298098;28;20045;-65
2020/12/13 02:33:24;;;;;;;21.98;13.70;;;4.60;99.90;;;;;;8298161;28;20453;-64
2020/12/13 02:37:26;;;;;;;15.57;8.20;;;4.60;99.90;;;;;;8296799;28;20658;-65
2020/12/13 02:41:27;;;;;;;22.65;13.35;;;4.60;99.90;;;;;;8295618;28;20049;-65
2020/12/13 02:45:28;;;;;;;22.83;13.27;;;4.60;99.90;;;;;;8297441;28;20115;-65
2020/12/13 02:49:28;;;;;;;26.40;14.27;;;4.60;99.90;;;;;;8297674;28;20104;-65
2020/12/13 02:53:29;;;;;;;23.55;13.38;;;4.60;99.90;;;;;;8296533;28;20480;-64
2020/12/13 02:57:29;;;;;;;24.27;13.02;;;4.70;99.90;;;;;;8297713;28;20065;-65
2020/12/13 03:01:30;;;;;;;23.65;13.88;;;4.70;99.90;;;;;;8296517;28;20033;-65
2020/12/13 03:05:30;;;;;;;22.80;13.50;;;4.70;99.90;;;;;;8297527;28;20509;-65
2020/12/13 03:09:31;;;;;;;24.42;13.57;;;4.70;99.90;;;;;;8297138;28;20064;-65
2020/12/13 03:13:31;;;;;;;24.00;13.65;;;4.60;99.90;;;;;;8297342;28;20079;-65
2020/12/13 03:17:32;;;;;;;25.00;13.75;;;4.60;99.90;;;;;;8297141;28;20036;-65
2020/12/13 03:21:33;;;;;;;23.52;13.48;;;4.60;99.90;;;;;;8295843;28;20022;-66
2020/12/13 03:25:33;;;;;;;26.95;15.23;;;4.60;99.90;;;;;;8295755;28;20053;-64
2020/12/13 03:29:34;;;;;;;25.67;13.88;;;4.70;99.90;;;;;;8295069;28;20077;-64
2020/12/13 03:33:34;;;;;;;27.27;14.27;;;4.60;99.90;;;;;;8296277;28;20635;-65
2020/12/13 03:37:35;;;;;;;23.40;12.15;;;4.60;99.90;;;;;;8295298;28;20145;-65
2020/12/13 03:41:35;;;;;;;24.83;12.90;;;4.60;99.90;;;;;;8295744;28;20069;-65
2020/12/13 03:45:36;;;;;;;28.98;15.35;;;4.50;99.90;;;;;;8296097;28;20030;-65
2020/12/13 03:49:38;;;;;;;19.67;9.77;;;4.60;99.90;;;;;;8294560;28;20484;-65
2020/12/13 03:53:38;;;;;;;25.90;13.93;;;4.60;99.90;;;;;;8295227;28;20558;-65
2020/12/13 03:57:39;;;;;;;22.92;13.38;;;4.60;99.90;;;;;;8295679;28;20037;-64
2020/12/13 04:01:39;;;;;;;20.13;10.75;;;4.60;99.90;;;;;;8293878;28;20084;-65
2020/12/13 04:05:40;;;;;;;27.08;15.20;;;4.70;99.90;;;;;;8295062;28;20022;-65
2020/12/13 04:09:40;;;;;;;22.70;13.80;;;4.60;99.90;;;;;;8295102;28;20097;-65
2020/12/13 04:13:41;;;;;;;24.67;13.75;;;4.60;99.90;;;;;;8295026;28;20124;-65
2020/12/13 04:17:42;;;;;;;26.02;14.63;;;4.70;99.90;;;;;;8294051;28;20029;-65
2020/12/13 04:21:43;;;;;;;22.92;13.43;;;4.70;99.90;;;;;;8292883;28;20029;-65
2020/12/13 04:25:43;;;;;;;21.27;12.27;;;4.70;99.90;;;;;;8293368;28;20029;-65
2020/12/13 04:29:44;;;;;;;24.40;14.57;;;4.70;99.90;;;;;;8292601;28;20029;-65
2020/12/13 04:33:44;;;;;;;18.55;10.98;;;4.70;99.90;;;;;;8291917;28;20402;-65
2020/12/13 04:37:45;;;;;;;22.67;13.10;;;4.80;99.90;;;;;;8292843;28;20030;-65
2020/12/13 04:41:46;;;;;;;22.42;13.27;;;4.80;99.90;;;;;;8291774;28;20087;-65
2020/12/13 04:45:47;;;;;;;22.65;13.68;;;4.80;99.90;;;;;;8294308;28;20475;-65
2020/12/13 04:49:50;;;;;;;19.73;11.48;;;4.80;99.90;;;;;;8293878;28;20033;-65
2020/12/13 04:54:05;;;;;;;18.98;11.32;;;4.80;99.90;;;;;;8291445;28;20043;-65
2020/12/13 04:58:09;;;;;;;15.10;8.75;;;4.70;99.90;;;;;;8291522;28;20037;-65
2020/12/13 05:02:12;;;;;;;24.63;13.63;;;4.80;99.90;;;;;;8292082;28;20030;-65
2020/12/13 05:06:13;;;;;;;26.75;15.18;;;4.80;99.90;;;;;;8291514;28;20135;-66
2020/12/13 05:10:14;;;;;;;24.70;14.73;;;4.80;99.90;;;;;;8278254;28;20033;-65
2020/12/13 05:14:14;;;;;;;26.45;15.68;;;4.80;99.90;;;;;;8280751;28;20085;-65
2020/12/13 05:18:15;;;;;;;23.45;13.65;;;4.80;99.90;;;;;;8277438;28;20041;-65
2020/12/13 05:22:22;;;;;;;25.90;14.80;;;4.80;99.90;;;;;;8276536;28;20023;-64
2020/12/13 05:26:22;;;;;;;15.05;9.10;;;4.90;99.90;;;;;;8274936;28;20014;-64
2020/12/13 05:30:31;;;;;;;19.02;9.88;;;4.80;99.90;;;;;;8285448;28;20044;-64
2020/12/13 05:34:32;;;;;;;22.65;15.20;;;4.80;99.90;;;;;;8276683;28;20030;-65
2020/12/13 05:38:38;;;;;;;20.67;12.00;;;4.80;99.90;;;;;;8287151;28;20036;-65
2020/12/13 05:42:42;;;;;;;22.88;14.38;;;4.80;99.90;;;;;;8292052;28;20018;-65
2020/12/13 05:54:57;;;;;;;20.88;13.52;;;4.80;99.90;;;;;;8299844;28;20126;-64
2020/12/13 05:58:59;;;;;;;14.07;8.52;;;4.80;99.90;;;;;;8297962;28;20034;-65
2020/12/13 06:03:03;;;;;;;15.85;10.13;;;4.80;99.90;;;;;;8297709;28;20030;-65
2020/12/13 06:07:04;;;;;;;19.58;11.65;;;4.70;99.90;;;;;;8299149;28;20073;-65
2020/12/13 06:11:06;;;;;;;18.77;12.38;;;4.70;99.90;;;;;;8299033;28;20479;-65
2020/12/13 06:15:07;;;;;;;12.52;8.43;;;4.70;99.90;;;;;;8299162;28;20080;-64
2020/12/13 06:19:10;;;;;;;9.18;5.85;;;4.70;99.90;;;;;;8298520;28;20068;-65
2020/12/13 06:23:13;;;;;;;17.67;11.70;;;4.70;99.90;;;;;;8297290;28;20567;-65
2020/12/13 06:27:14;;;;;;;18.58;11.05;;;4.70;99.90;;;;;;8298434;28;20033;-64
2020/12/13 06:31:16;;;;;;;10.60;7.30;;;4.70;99.90;;;;;;8298152;28;20029;-64
2020/12/13 06:35:17;;;;;;;17.20;11.65;;;4.70;99.90;;;;;;8296518;28;20028;-66
2020/12/13 06:39:18;;;;;;;19.98;11.85;;;4.70;99.90;;;;;;8294709;28;20030;-65
2020/12/13 06:43:19;;;;;;;12.90;9.25;;;4.70;99.90;;;;;;8297473;28;20029;-65
2020/12/13 06:47:23;;;;;;;15.27;10.07;;;4.70;99.90;;;;;;8296580;28;20407;-65
2020/12/13 06:51:35;;;;;;;15.55;10.57;;;4.70;99.90;;;;;;8297577;28;20069;-64
2020/12/13 06:55:36;;;;;;;28.67;20.92;;;4.70;99.90;;;;;;8292449;28;20095;-65
2020/12/13 06:59:44;;;;;;;8.85;6.05;;;4.70;99.90;;;;;;8296775;28;20034;-65
2020/12/13 07:03:49;;;;;;;14.93;10.82;;;4.70;99.90;;;;;;8279637;28;20384;-65
2020/12/13 07:07:54;;;;;;;17.65;11.48;;;4.60;99.90;;;;;;8291746;28;20022;-65
2020/12/13 07:11:55;;;;;;;20.92;12.90;;;4.60;99.90;;;;;;8278400;28;20404;-64
2020/12/13 07:16:10;;;;;;;11.93;8.82;;;4.60;99.90;;;;;;8277843;28;20069;-64
2020/12/13 07:20:11;;;;;;;9.77;7.35;;;4.60;99.90;;;;;;8283742;28;20029;-65
2020/12/13 07:24:12;;;;;;;6.57;5.38;;;4.70;99.90;;;;;;8293040;28;20030;-64
2020/12/13 07:28:15;;;;;;;5.70;4.60;;;4.70;99.90;;;;;;8294461;28;20172;-65
2020/12/13 07:32:16;;;;;;;4.95;3.50;;;4.70;99.90;;;;;;8284481;28;20109;-64
2020/12/13 07:36:17;;;;;;;6.43;5.07;;;4.60;99.90;;;;;;8271194;28;20648;-65
2020/12/13 07:40:18;;;;;;;7.53;5.40;;;4.60;99.90;;;;;;8264105;28;20022;-64
2020/12/13 07:44:19;;;;;;;7.68;5.68;;;4.70;99.90;;;;;;8276401;28;20029;-64
2020/12/13 07:48:19;;;;;;;6.10;5.07;;;4.70;99.90;;;;;;8269964;28;20166;-65
2020/12/13 07:52:20;;;;;;;5.93;4.70;;;4.70;99.90;;;;;;8279008;28;20049;-65
2020/12/13 07:56:27;;;;;;;7.15;5.35;;;4.70;99.90;;;;;;8278073;28;20455;-64
2020/12/13 08:00:27;;;;;;;5.20;4.30;;;4.70;99.90;;;;;;8287776;28;20162;-66
2020/12/13 08:04:37;;;;;;;7.03;5.50;;;4.70;99.90;;;;;;8273253;28;20026;-65
2020/12/13 08:08:42;;;;;;;5.45;4.72;;;4.70;99.90;;;;;;8262267;28;20050;-67
2020/12/13 08:12:46;;;;;;;7.05;6.13;;;4.60;99.90;;;;;;8265120;28;20056;-67
2020/12/13 08:16:54;;;;;;;5.30;4.80;;;4.70;99.90;;;;;;8263846;28;20030;-66
2020/12/13 08:20:57;;;;;;;4.32;3.70;;;4.70;99.90;;;;;;8263361;28;20030;-66
2020/12/13 08:25:01;;;;;;;4.88;4.07;;;4.80;99.90;;;;;;8289021;28;20033;-65
2020/12/13 08:29:03;;;;;;;2.60;2.03;;;4.80;99.90;;;;;;8282959;28;20026;-65
2020/12/13 08:33:09;;;;;;;5.03;4.43;;;4.70;99.90;;;;;;8291936;28;20108;-65
2020/12/13 08:37:09;;;;;;;4.07;3.65;;;4.80;99.90;;;;;;8288093;28;20466;-65
2020/12/13 08:41:12;;;;;;;5.68;4.75;;;4.80;99.90;;;;;;8279509;28;20037;-66
2020/12/13 08:45:24;;;;;;;5.85;5.25;;;4.90;99.90;;;;;;8286822;28;20030;-66
2020/12/13 08:49:31;;;;;;;5.60;4.00;;;5.00;99.90;;;;;;8291983;28;20026;-65
2020/12/13 08:53:32;;;;;;;5.22;4.30;;;5.20;99.90;;;;;;8291888;28;20381;-65
2020/12/13 08:57:34;;;;;;;6.45;4.55;;;5.20;99.90;;;;;;8275723;28;20022;-64
2020/12/13 09:01:40;;;;;;;4.38;3.67;;;5.40;99.90;;;;;;8282715;28;20030;-66
2020/12/13 09:05:40;;;;;;;4.90;4.25;;;5.70;99.90;;;;;;8291030;28;20447;-65
2020/12/13 09:09:41;;;;;;;3.80;3.40;;;5.60;99.90;;;;;;8277387;28;20025;-65
2020/12/13 09:13:51;;;;;;;4.70;4.00;;;5.70;99.90;;;;;;8290704;28;20042;-66
2020/12/13 09:17:56;;;;;;;4.22;3.75;;;5.60;99.90;;;;;;8304081;28;20431;-66
2020/12/13 09:21:59;;;;;;;4.00;3.60;;;5.70;99.90;;;;;;8276944;28;20030;-67
2020/12/13 09:26:00;;;;;;;3.65;2.25;;;5.90;99.90;;;;;;8286195;28;20022;-66
2020/12/13 09:30:00;;;;;;;12.82;8.82;;;6.00;99.90;;;;;;8285551;28;20034;-67
2020/12/13 09:34:01;;;;;;;4.43;2.90;;;5.90;99.90;;;;;;8283275;28;20031;-66
2020/12/13 09:38:04;;;;;;;9.85;6.78;;;6.10;99.90;;;;;;8292197;28;20127;-64
2020/12/13 09:42:05;;;;;;;6.45;4.97;;;6.00;99.90;;;;;;8282746;28;20034;-64
2020/12/13 09:46:05;;;;;;;14.80;9.85;;;6.00;99.90;;;;;;8288292;28;20030;-64
2020/12/13 09:50:06;;;;;;;8.25;6.28;;;6.10;99.90;;;;;;8285510;28;20033;-64
2020/12/13 09:54:07;;;;;;;4.80;3.88;;;6.20;99.90;;;;;;8283527;28;20105;-66
2020/12/13 09:58:07;;;;;;;7.28;3.22;;;6.10;99.90;;;;;;8273247;28;20558;-65
2020/12/13 10:02:08;;;;;;;6.22;5.57;;;6.00;99.90;;;;;;8283334;28;20084;-66
2020/12/13 10:10:25;;;;;;;3.28;2.97;;;6.70;99.90;;;;;;8272640;28;20044;-66
2020/12/13 10:14:26;;;;;;;4.50;3.97;;;6.50;99.90;;;;;;8278196;28;20496;-65
2020/12/13 10:18:27;;;;;;;3.35;3.00;;;6.20;99.90;;;;;;8288565;28;20022;-66
2020/12/13 10:22:27;;;;;;;5.97;5.00;;;6.20;99.90;;;;;;8286486;28;20037;-66
2020/12/13 10:26:30;;;;;;;3.45;2.67;;;6.20;99.90;;;;;;8276075;28;20041;-66
2020/12/13 10:30:31;;;;;;;6.05;4.28;;;6.20;99.90;;;;;;8262779;28;20053;-67
2020/12/13 10:34:31;;;;;;;5.20;3.95;;;6.20;99.90;;;;;;8273563;28;20030;-66
2020/12/13 10:38:32;;;;;;;3.80;3.40;;;6.50;99.90;;;;;;8277365;28;20018;-66
2020/12/13 10:42:32;;;;;;;6.63;4.93;;;6.60;99.90;;;;;;8290830;28;20021;-66
2020/12/13 10:46:33;;;;;;;11.07;7.30;;;6.70;99.90;;;;;;8293333;28;20109;-65
2020/12/13 10:50:37;;;;;;;4.65;4.10;;;6.50;99.90;;;;;;8287311;28;20121;-66
2020/12/13 10:54:38;;;;;;;6.20;5.60;;;6.60;99.90;;;;;;8295451;28;20495;-65
2020/12/13 10:58:42;;;;;;;5.72;4.40;;;6.60;99.90;;;;;;8286210;28;20122;-65
2020/12/13 11:02:43;;;;;;;4.53;3.90;;;6.50;99.90;;;;;;8277136;28;20027;-66
2020/12/13 11:06:47;;;;;;;3.42;3.13;;;6.60;99.90;;;;;;8283896;28;20034;-65
2020/12/13 11:10:48;;;;;;;4.25;3.35;;;6.50;99.90;;;;;;8294481;28;20384;-65
2020/12/13 11:14:48;;;;;;;2.80;2.50;;;6.50;99.90;;;;;;8297175;28;20038;-66
2020/12/13 11:18:49;;;;;;;2.92;1.98;;;6.60;99.90;;;;;;8295641;28;20072;-66
2020/12/13 11:22:49;;;;;;;3.22;2.88;;;6.60;99.90;;;;;;8296640;28;20053;-66
2020/12/13 11:26:50;;;;;;;24.88;14.30;;;6.60;99.90;;;;;;8295870;28;20492;-66
2020/12/13 11:30:50;;;;;;;5.10;2.85;;;6.60;99.90;;;;;;8293273;28;20034;-66
2020/12/13 11:34:51;;;;;;;4.55;3.00;;;6.70;99.90;;;;;;8288308;28;20038;-65
2020/12/13 11:38:52;;;;;;;3.78;3.35;;;6.60;99.90;;;;;;8294544;28;20033;-66
2020/12/13 11:42:52;;;;;;;5.90;4.60;;;6.60;99.90;;;;;;8283606;28;20034;-65
2020/12/13 11:46:54;;;;;;;4.90;3.95;;;6.60;99.90;;;;;;8288516;28;20562;-67
2020/12/13 11:50:54;;;;;;;2.85;2.40;;;6.80;99.90;;;;;;8288625;28;20038;-67
2020/12/13 11:54:55;;;;;;;34.92;28.92;;;7.00;99.90;;;;;;8269208;28;20532;-67
2020/12/13 11:58:56;;;;;;;18.33;10.57;;;7.30;99.90;;;;;;8287336;28;20034;-67
2020/12/13 12:02:56;;;;;;;2.13;1.83;;;7.40;99.90;;;;;;8284410;28;20026;-67
2020/12/13 12:06:57;;;;;;;8.07;5.85;;;7.50;99.90;;;;;;8292616;28;20026;-67
2020/12/13 12:10:58;;;;;;;3.08;2.47;;;7.40;99.90;;;;;;8261651;28;20041;-68
2020/12/13 12:14:58;;;;;;;2.67;1.98;;;7.20;99.90;;;;;;8262141;28;20034;-67
2020/12/13 12:19:00;;;;;;;2.60;2.40;;;7.10;99.90;;;;;;8268497;28;20037;-67
2020/12/13 12:23:00;;;;;;;3.10;2.55;;;7.00;99.90;;;;;;8269679;28;20026;-67
2020/12/13 12:27:02;;;;;;;1.38;1.27;;;6.80;99.90;;;;;;8281390;28;20096;-67
2020/12/13 12:31:02;;;;;;;3.53;3.22;;;6.90;99.90;;;;;;8272544;28;20113;-67
2020/12/13 12:35:04;;;;;;;3.60;3.25;;;6.70;99.90;;;;;;8265798;28;20056;-67
2020/12/13 12:39:05;;;;;;;2.55;2.35;;;6.80;99.90;;;;;;8266696;28;20034;-67
2020/12/13 12:43:06;;;;;;;2.63;2.33;;;6.80;99.90;;;;;;8274931;28;20018;-65
2020/12/13 12:47:07;;;;;;;2.38;2.10;;;6.50;99.90;;;;;;8284791;28;20022;-65
2020/12/13 12:51:09;;;;;;;2.95;2.40;;;6.50;99.90;;;;;;8287439;28;20677;-66
2020/12/13 12:55:09;;;;;;;3.10;2.63;;;6.50;99.90;;;;;;8271247;28;20066;-66
2020/12/13 12:59:19;;;;;;;2.55;2.22;;;6.20;99.90;;;;;;8269387;28;20049;-65
2020/12/13 13:03:20;;;;;;;3.00;2.50;;;6.30;99.90;;;;;;8276195;28;20121;-66
2020/12/13 13:07:24;;;;;;;1.92;1.75;;;6.30;99.90;;;;;;8286996;28;20136;-65
2020/12/13 13:11:33;;;;;;;16.42;8.55;;;6.20;99.90;;;;;;8289931;28;20057;-66
2020/12/13 13:15:56;;;;;;;3.97;3.20;;;6.00;99.90;;;;;;8281040;28;20513;-65
2020/12/13 13:19:58;;;;;;;3.50;2.83;;;6.10;99.90;;;;;;8286427;28;20041;-65
2020/12/13 13:23:59;;;;;;;12.15;6.88;;;6.10;99.90;;;;;;8283323;28;20022;-67
2020/12/13 13:27:59;;;;;;;8.98;5.38;;;6.00;99.90;;;;;;8271594;28;20039;-69
2020/12/13 13:32:00;;;;;;;11.02;6.57;;;6.00;99.90;;;;;;8268626;28;20088;-70
2020/12/13 13:36:01;;;;;;;9.55;5.47;;;6.10;99.90;;;;;;8274496;28;20037;-69
2020/12/13 13:40:02;;;;;;;8.23;5.68;;;6.00;99.90;;;;;;8282754;28;20034;-71
2020/12/13 13:44:09;;;;;;;6.50;4.57;;;6.00;99.90;;;;;;8275152;28;20063;-68
2020/12/13 13:52:10;;;;;;;5.03;3.30;;;6.20;99.90;;;;;;8284040;28;20540;-69
2020/12/13 13:56:15;;;;;;;7.68;5.32;;;6.30;99.90;;;;;;8291529;28;20037;-71
2020/12/13 14:00:16;;;;;;;15.80;9.60;;;6.40;99.90;;;;;;8287726;28;20030;-69
2020/12/13 14:04:17;;;;;;;7.15;5.38;;;6.40;99.90;;;;;;8308348;28;20021;-70
2020/12/13 14:12:18;;;;;;;3.97;3.53;;;6.70;99.90;;;;;;8280224;28;20511;-69
2020/12/13 14:16:19;;;;;;;3.50;2.95;;;6.60;99.90;;;;;;8284510;28;20026;-68
2020/12/13 14:20:19;;;;;;;3.20;2.85;;;6.60;99.90;;;;;;8277000;28;20030;-69
2020/12/13 14:24:20;;;;;;;5.15;3.88;;;6.70;99.90;;;;;;8293783;28;20026;-68
2020/12/13 14:28:22;;;;;;;5.93;3.10;;;6.50;99.90;;;;;;8280670;28;20033;-69
2020/12/13 14:32:23;;;;;;;3.67;3.00;;;6.50;99.90;;;;;;8268596;28;20399;-69
2020/12/13 14:36:24;;;;;;;5.32;3.53;;;6.40;99.90;;;;;;8260632;28;20032;-69
2020/12/13 14:40:25;;;;;;;5.07;4.00;;;6.30;99.90;;;;;;8262034;28;20026;-68
2020/12/13 14:44:25;;;;;;;4.78;3.05;;;6.10;99.90;;;;;;8259656;28;20034;-68
2020/12/13 14:48:27;;;;;;;5.45;3.65;;;6.00;99.90;;;;;;8265317;28;20073;-69
2020/12/13 14:52:27;;;;;;;5.20;3.63;;;5.80;99.90;;;;;;8277064;28;20057;-69
2020/12/13 14:56:28;;;;;;;3.85;3.38;;;5.80;99.90;;;;;;8290500;28;20033;-68
2020/12/13 15:00:28;;;;;;;6.32;3.45;;;5.80;99.90;;;;;;8291609;28;20747;-69
2020/12/13 15:04:29;;;;;;;8.00;5.40;;;5.80;99.90;;;;;;8291356;28;20093;-69
2020/12/13 15:08:30;;;;;;;14.85;8.27;;;5.70;99.90;;;;;;8292335;28;20032;-68
2020/12/13 15:12:30;;;;;;;16.80;9.77;;;5.70;99.90;;;;;;8294383;28;20052;-68
2020/12/13 15:20:51;;;;;;;4.22;3.25;;;5.70;99.90;;;;;;8291384;28;20647;-68
2020/12/13 15:24:51;;;;;;;5.55;4.10;;;5.80;99.90;;;;;;8291720;28;20034;-68
2020/12/13 15:28:52;;;;;;;7.85;5.28;;;5.80;99.90;;;;;;8281335;28;20389;-68
2020/12/13 15:32:52;;;;;;;6.22;5.15;;;5.60;99.90;;;;;;8271805;28;20036;-70
2020/12/13 15:36:53;;;;;;;9.25;5.68;;;5.70;99.90;;;;;;8274705;28;20686;-70
2020/12/13 15:40:54;;;;;;;8.63;6.40;;;5.60;99.90;;;;;;8275127;28;20054;-68
2020/12/13 15:44:54;;;;;;;7.32;6.00;;;5.60;99.90;;;;;;8280303;28;20029;-69
2020/12/13 15:48:55;;;;;;;13.30;7.15;;;5.50;99.90;;;;;;8300822;28;20038;-68
2020/12/13 15:52:55;;;;;;;12.82;6.70;;;5.50;99.90;;;;;;8285128;28;20026;-69
2020/12/13 15:56:59;;;;;;;8.60;5.65;;;5.60;99.90;;;;;;8271633;28;20049;-69
2020/12/13 16:00:59;;;;;;;6.75;5.65;;;5.50;99.90;;;;;;8288369;28;20037;-68
2020/12/13 16:05:11;;;;;;;7.57;5.75;;;6.10;99.90;;;;;;8306215;28;20500;-69
2020/12/13 16:09:12;;;;;;;9.65;7.20;;;6.00;99.90;;;;;;8283970;28;20121;-69
2020/12/13 16:13:15;;;;;;;9.82;6.18;;;6.00;99.90;;;;;;8269985;28;20508;-69
2020/12/13 16:17:15;;;;;;;10.85;8.00;;;5.70;99.90;;;;;;8265561;28;20022;-69
2020/12/13 16:21:20;;;;;;;13.15;8.60;;;5.80;99.90;;;;;;8276520;28;20034;-68
2020/12/13 16:25:23;;;;;;;15.48;9.18;;;5.60;99.90;;;;;;8285966;28;20030;-69
2020/12/13 16:29:24;;;;;;;12.48;7.32;;;5.60;99.90;;;;;;8277631;28;20031;-69
2020/12/13 16:33:24;;;;;;;15.85;10.35;;;5.80;99.90;;;;;;8280538;28;20038;-69
2020/12/13 16:37:25;;;;;;;23.08;15.07;;;5.60;99.90;;;;;;8290336;28;20025;-72
2020/12/13 16:41:28;;;;;;;17.80;11.43;;;5.70;99.90;;;;;;8281741;28;20045;-71
2020/12/13 16:45:38;;;;;;;13.63;8.95;;;5.60;99.90;;;;;;8288053;28;20042;-72
2020/12/13 16:57:43;;;;;;;10.20;7.32;;;5.30;99.90;;;;;;8290109;28;20057;-71
2020/12/13 17:01:44;;;;;;;14.07;8.75;;;5.50;99.90;;;;;;8288158;28;20030;-69
2020/12/13 17:05:47;;;;;;;17.58;10.45;;;5.40;99.90;;;;;;8288407;28;20034;-72
2020/12/13 17:09:48;;;;;;;24.23;13.00;;;5.40;99.90;;;;;;8289476;28;20018;-70
2020/12/13 17:13:48;;;;;;;27.08;16.00;;;5.40;99.90;;;;;;8289416;28;20395;-71
2020/12/13 17:17:50;;;;;;;13.02;8.82;;;5.20;99.90;;;;;;8278728;28;20030;-69
2020/12/13 17:21:51;;;;;;;11.27;8.00;;;5.30;99.90;;;;;;8271108;28;20033;-70
2020/12/13 17:25:51;;;;;;;15.27;10.77;;;5.50;99.90;;;;;;8268634;28;20041;-72
2020/12/13 17:29:52;;;;;;;16.70;10.68;;;5.30;99.90;;;;;;8277408;28;20060;-69
2020/12/13 17:33:54;;;;;;;15.52;10.18;;;5.10;99.90;;;;;;8283431;28;20124;-71
2020/12/13 17:37:55;;;;;;;14.02;10.10;;;5.20;99.90;;;;;;8274507;28;20037;-71
2020/12/13 17:41:57;;;;;;;13.75;9.70;;;5.10;99.90;;;;;;8278527;28;20570;-72
2020/12/13 17:45:58;;;;;;;16.27;10.63;;;5.10;99.90;;;;;;8276350;28;20074;-71
2020/12/13 17:50:01;;;;;;;17.73;12.73;;;5.00;99.90;;;;;;8307792;28;20056;-72
2020/12/13 17:58:18;;;;;;;15.98;9.85;;;4.90;99.90;;;;;;8295741;28;20499;-71
2020/12/13 18:02:18;;;;;;;16.17;11.48;;;4.70;99.90;;;;;;8294249;28;20466;-70
2020/12/13 18:06:19;;;;;;;13.65;8.32;;;4.60;99.90;;;;;;8294735;28;20022;-70
2020/12/13 18:10:20;;;;;;;12.98;7.57;;;4.50;99.90;;;;;;8294021;28;20037;-69
2020/12/13 18:14:23;;;;;;;12.20;7.28;;;4.50;99.90;;;;;;8293285;28;20034;-69
2020/12/13 18:18:24;;;;;;;69.10;37.72;;;4.50;99.90;;;;;;8280235;28;20041;-69
2020/12/13 18:22:27;;;;;;;18.55;11.85;;;4.40;99.90;;;;;;8289472;28;20052;-69
2020/12/13 18:26:28;;;;;;;11.80;8.45;;;4.40;99.90;;;;;;8290549;28;20025;-69
2020/12/13 18:30:30;;;;;;;16.27;9.82;;;4.20;99.90;;;;;;8294566;28;20037;-68
2020/12/13 18:34:31;;;;;;;11.60;8.25;;;4.20;99.90;;;;;;8288597;28;20030;-68
2020/12/13 18:38:32;;;;;;;12.30;6.95;;;4.30;99.90;;;;;;8264241;28;20129;-68
2020/12/13 18:42:33;;;;;;;9.30;6.10;;;4.40;99.90;;;;;;8261753;28;20030;-69
2020/12/13 18:46:34;;;;;;;11.15;8.02;;;4.70;99.90;;;;;;8262070;28;20037;-69
2020/12/13 18:50:46;;;;;;;12.52;8.73;;;4.50;99.90;;;;;;8259099;28;20069;-69
2020/12/13 18:54:47;;;;;;;21.10;12.00;;;4.30;99.90;;;;;;8260292;28;20031;-69
2020/12/13 18:58:48;;;;;;;22.67;12.82;;;4.20;99.90;;;;;;8264022;28;20517;-69
2020/12/13 19:07:01;;;;;;;13.98;9.35;;;4.50;99.90;;;;;;8293184;28;20435;-71
2020/12/13 19:11:03;;;;;;;19.75;10.65;;;4.60;99.90;;;;;;8288453;28;20022;-71
2020/12/13 19:15:05;;;;;;;26.70;15.15;;;4.60;99.90;;;;;;8286879;28;20034;-72
2020/12/13 19:19:05;;;;;;;18.98;11.73;;;4.60;99.90;;;;;;8284353;28;20041;-71
2020/12/13 19:23:06;;;;;;;15.25;8.90;;;4.60;99.90;;;;;;8289096;28;20487;-71
2020/12/13 19:27:06;;;;;;;14.48;10.15;;;4.70;99.90;;;;;;8289544;28;20046;-71
2020/12/13 19:31:07;;;;;;;17.35;10.77;;;4.70;99.90;;;;;;8285812;28;20119;-71
2020/12/13 19:35:08;;;;;;;18.17;11.07;;;4.70;99.90;;;;;;8282132;28;20145;-71
2020/12/13 19:39:08;;;;;;;16.52;8.20;;;4.70;99.90;;;;;;8288809;28;20034;-71
2020/12/13 19:43:09;;;;;;;16.52;9.10;;;4.50;99.90;;;;;;8292631;28;20041;-71
2020/12/13 19:47:11;;;;;;;13.27;8.35;;;4.70;99.90;;;;;;8266173;28;20026;-71
2020/12/13 19:51:11;;;;;;;8.13;5.72;;;4.70;99.90;;;;;;8260441;28;20026;-71
2020/12/13 19:55:12;;;;;;;11.82;7.40;;;4.70;99.90;;;;;;8258674;28;20411;-71
2020/12/13 19:59:13;;;;;;;12.02;7.68;;;4.60;99.90;;;;;;8271456;28;20034;-71
2020/12/13 20:03:14;;;;;;;10.93;6.78;;;4.60;99.90;;;;;;8289677;28;20034;-71
2020/12/13 20:07:18;;;;;;;9.93;6.50;;;4.80;99.90;;;;;;8289945;28;20400;-71
2020/12/13 20:11:24;;;;;;;8.05;5.15;;;4.60;99.90;;;;;;8278907;28;20038;-70
2020/12/13 20:15:50;;;;;;;8.10;5.22;;;4.70;99.90;;;;;;8262858;28;20104;-68
2020/12/13 20:28:49;;;;;;;5.47;3.88;;;4.50;99.90;;;;;;8276063;28;20044;-71
2020/12/13 20:34:00;;;;;;;2.90;2.13;;;4.50;99.90;;;;;;8282485;28;20038;-71
2020/12/13 20:51:51;;;;;;;2.83;2.30;;;4.70;99.90;;;;;;8258921;28;20032;-70
2020/12/13 20:55:19;;;;;;;2.75;2.00;;;4.80;99.90;;;;;;8272842;28;20041;-71
2020/12/13 21:15:39;;;;;;;3.05;2.25;;;4.90;99.90;;;;;;8280769;28;20096;-71
2020/12/13 21:20:42;;;;;;;3.05;1.70;;;4.80;99.90;;;;;;8269819;28;20092;-71
2020/12/13 21:28:50;;;;;;;2.15;1.60;;;4.50;99.90;;;;;;8272668;28;20153;-70
2020/12/13 21:45:12;;;;;;;2.73;2.27;;;4.70;99.90;;;;;;8286700;28;20061;-71
2020/12/13 21:53:17;;;;;;;2.65;2.10;;;4.60;99.90;;;;;;8288378;28;20052;-71
2020/12/13 21:57:24;;;;;;;3.35;2.70;;;4.40;99.90;;;;;;8287748;28;20085;-71
2020/12/13 22:26:58;;;;;;;2.10;1.70;;;4.20;99.90;;;;;;8278791;28;20109;-71
2020/12/13 22:30:58;;;;;;;2.45;2.10;;;4.10;99.90;;;;;;8280516;28;20026;-71
2020/12/13 22:34:59;;;;;;;2.78;2.17;;;3.90;99.90;;;;;;8277619;28;20105;-70
2020/12/13 22:39:00;;;;;;;4.38;2.72;;;3.80;99.90;;;;;;8277192;28;20034;-71
2020/12/13 22:43:01;;;;;;;4.40;3.20;;;3.70;99.90;;;;;;8277531;28;20030;-70
2020/12/13 22:47:01;;;;;;;6.25;3.65;;;3.70;99.90;;;;;;8276828;28;20037;-71
2020/12/13 22:51:06;;;;;;;6.07;3.67;;;3.60;99.90;;;;;;8274380;28;20033;-71
2020/12/13 22:55:06;;;;;;;5.03;3.42;;;3.80;99.90;;;;;;8277167;28;20104;-71
2020/12/13 22:59:07;;;;;;;7.20;4.00;;;3.50;99.90;;;;;;8273904;28;20025;-71
2020/12/13 23:03:08;;;;;;;4.78;3.50;;;3.40;99.90;;;;;;8276666;28;20022;-71
2020/12/13 23:07:11;;;;;;;5.63;3.42;;;3.30;99.90;;;;;;8277189;28;20033;-71